createdAt,value
2022-09-14T00:00:01.514Z,52
2022-09-14T00:04:04.337Z,52
2022-09-14T00:06:05.897Z,52
2022-09-14T00:10:08.647Z,52
2022-09-14T00:14:11.652Z,52
2022-09-14T00:16:12.885Z,52
2022-09-14T00:20:15.685Z,52
2022-09-14T00:24:18.654Z,52
2022-09-14T00:26:20.050Z,52
2022-09-14T00:28:21.207Z,52
2022-09-14T00:30:22.913Z,52
2022-09-14T00:34:25.125Z,52
2022-09-14T00:36:26.485Z,52
2022-09-14T00:42:30.086Z,52
2022-09-14T00:44:31.485Z,52
2022-09-14T00:46:32.844Z,52
2022-09-14T00:48:34.094Z,52
2022-09-14T00:52:36.290Z,52
2022-09-14T00:54:37.920Z,52
2022-09-14T00:56:39.628Z,52
2022-09-14T01:02:43.577Z,52
2022-09-14T01:04:45.239Z,52
2022-09-14T01:06:46.196Z,52
2022-09-14T01:08:47.814Z,52
2022-09-14T01:10:49.600Z,52
2022-09-14T01:12:50.961Z,52
2022-09-14T01:14:52.118Z,52
2022-09-14T01:16:54.020Z,52
2022-09-14T01:18:55.384Z,52
2022-09-14T01:20:56.676Z,52
2022-09-14T01:22:58.136Z,52
2022-09-14T01:24:59.893Z,52
2022-09-14T01:27:01.748Z,52
2022-09-14T01:29:02.774Z,52
2022-09-14T01:31:04.604Z,52
2022-09-14T01:35:07.232Z,52
2022-09-14T01:37:08.988Z,52
2022-09-14T01:41:11.951Z,104
2022-09-14T01:45:14.815Z,104
2022-09-14T01:47:15.854Z,104
2022-09-14T01:49:16.976Z,104
2022-09-14T01:51:18.143Z,104
2022-09-14T01:53:19.530Z,104
2022-09-14T01:55:20.528Z,104
2022-09-14T01:57:22.205Z,104
2022-09-14T02:01:25.038Z,104
2022-09-14T02:03:26.752Z,104
2022-09-14T02:05:27.678Z,104
2022-09-14T02:07:29.515Z,104
2022-09-14T02:09:30.820Z,104
2022-09-14T02:11:31.890Z,104
2022-09-14T02:13:33.475Z,104
2022-09-14T02:17:35.606Z,101
2022-09-14T02:19:36.910Z,101
2022-09-14T02:21:38.384Z,101
2022-09-14T02:23:39.324Z,101
2022-09-14T02:27:41.949Z,101
2022-09-14T02:29:43.519Z,101
2022-09-14T02:33:46.783Z,101
2022-09-14T02:37:49.570Z,101
2022-09-14T02:39:51.349Z,101
2022-09-14T02:43:54.112Z,163
2022-09-14T02:47:56.211Z,247
2022-09-14T02:49:57.174Z,248
2022-09-14T02:51:58.976Z,248
2022-09-14T02:54:00.258Z,249
2022-09-14T03:00:04.369Z,255
2022-09-14T03:02:05.415Z,255
2022-09-14T03:04:07.266Z,255
2022-09-14T03:06:09.101Z,152
2022-09-14T03:08:10.005Z,152
2022-09-14T03:10:11.177Z,152
2022-09-14T03:12:12.248Z,143
2022-09-14T03:16:14.839Z,117
2022-09-14T03:18:16.529Z,119
2022-09-14T03:20:18.070Z,360
2022-09-14T03:22:19.844Z,91
2022-09-14T03:26:23.065Z,70
2022-09-14T03:28:24.500Z,70
2022-09-14T03:30:26.283Z,74
2022-09-14T03:32:27.417Z,80
2022-09-14T03:34:28.646Z,80
2022-09-14T03:36:29.821Z,80
2022-09-14T03:38:31.134Z,80
2022-09-14T03:40:32.897Z,80
2022-09-14T03:42:34.377Z,81
2022-09-14T03:44:35.749Z,140
2022-09-14T03:46:37.387Z,177
2022-09-14T03:48:38.873Z,177
2022-09-14T03:50:40.013Z,177
2022-09-14T03:52:41.479Z,177
2022-09-14T03:54:43.065Z,177
2022-09-14T03:58:45.893Z,190
2022-09-14T04:00:46.960Z,190
2022-09-14T04:02:48.799Z,196
2022-09-14T04:04:50.501Z,196
2022-09-14T04:08:53.211Z,196
2022-09-14T04:10:54.851Z,195
2022-09-14T04:12:56.676Z,103
2022-09-14T04:14:58.347Z,115
2022-09-14T04:16:59.254Z,115
2022-09-14T04:19:00.535Z,115
2022-09-14T04:21:05.872Z,79
2022-09-14T04:23:02.625Z,360
2022-09-14T04:25:03.724Z,119
2022-09-14T04:27:05.208Z,113
2022-09-14T04:29:06.832Z,114
2022-09-14T04:31:08.612Z,134
2022-09-14T04:33:10.070Z,137
2022-09-14T04:35:11.102Z,137
2022-09-14T04:37:12.132Z,224
2022-09-14T04:41:23.399Z,224
2022-09-14T04:43:17.079Z,224
2022-09-14T04:45:18.751Z,225
2022-09-14T04:47:19.950Z,225
2022-09-14T04:51:22.416Z,225
2022-09-14T04:53:23.371Z,225
2022-09-14T04:55:24.575Z,225
2022-09-14T04:57:25.920Z,225
2022-09-14T05:01:28.897Z,225
2022-09-14T05:03:30.513Z,225
2022-09-14T05:05:31.552Z,225
2022-09-14T05:07:32.713Z,225
2022-09-14T05:11:35.044Z,182
2022-09-14T05:13:36.236Z,181
2022-09-14T05:17:39.122Z,120
2022-09-14T05:19:40.979Z,120
2022-09-14T05:23:42.982Z,120
2022-09-14T05:27:45.239Z,120
2022-09-14T05:29:46.172Z,120
2022-09-14T05:31:47.537Z,120
2022-09-14T05:33:48.493Z,120
2022-09-14T05:35:50.196Z,120
2022-09-14T05:39:52.388Z,120
2022-09-14T05:43:55.601Z,120
2022-09-14T05:45:57.355Z,120
2022-09-14T05:50:00.009Z,120
2022-09-14T05:54:02.913Z,120
2022-09-14T05:56:04.548Z,120
2022-09-14T05:58:05.910Z,120
2022-09-14T06:00:07.671Z,120
2022-09-14T06:02:08.743Z,120
2022-09-14T06:04:54.345Z,120
2022-09-14T06:07:14.777Z,120
2022-09-14T06:08:56.136Z,120
2022-09-14T06:10:57.078Z,120
2022-09-14T06:12:57.957Z,120
2022-09-14T06:17:01.238Z,120
2022-09-14T06:19:02.873Z,120
2022-09-14T06:23:05.233Z,283
2022-09-14T06:27:07.785Z,283
2022-09-14T06:29:08.770Z,283
2022-09-14T06:31:09.832Z,283
2022-09-14T06:33:10.910Z,283
2022-09-14T06:37:13.329Z,283
2022-09-14T06:39:14.745Z,283
2022-09-14T06:41:16.118Z,283
2022-09-14T06:43:17.457Z,283
2022-09-14T06:49:22.081Z,283
2022-09-14T06:51:23.168Z,244
2022-09-14T06:53:24.276Z,247
2022-09-14T06:55:25.320Z,247
2022-09-14T06:57:26.263Z,247
2022-09-14T06:59:27.433Z,247
2022-09-14T07:03:30.310Z,247
2022-09-14T07:05:31.519Z,247
2022-09-14T07:09:34.721Z,247
2022-09-14T07:11:35.898Z,247
2022-09-14T07:15:38.249Z,247
2022-09-14T07:17:39.346Z,247
2022-09-14T07:19:40.926Z,247
2022-09-14T07:21:42.129Z,247
2022-09-14T07:25:44.315Z,247
2022-09-14T07:27:46.050Z,247
2022-09-14T07:29:47.427Z,247
2022-09-14T07:31:48.367Z,247
2022-09-14T07:33:50.139Z,247
2022-09-14T07:35:51.051Z,247
2022-09-14T07:37:52.015Z,247
2022-09-14T07:39:53.418Z,247
2022-09-14T07:41:54.751Z,247
2022-09-14T07:43:56.304Z,247
2022-09-14T07:45:57.997Z,247
2022-09-14T07:47:58.871Z,247
2022-09-14T07:50:00.150Z,247
2022-09-14T07:52:01.370Z,242
2022-09-14T07:54:02.546Z,230
2022-09-14T07:58:05.467Z,257
2022-09-14T08:00:06.691Z,230
2022-09-14T08:02:07.885Z,230
2022-09-14T08:04:09.655Z,230
2022-09-14T08:08:11.933Z,255
2022-09-14T08:10:13.363Z,251
2022-09-14T08:12:14.583Z,262
2022-09-14T08:14:16.404Z,221
2022-09-14T08:18:18.389Z,360
2022-09-14T08:20:19.781Z,230
2022-09-14T08:22:21.231Z,360
2022-09-14T08:24:22.492Z,231
2022-09-14T08:30:27.114Z,229
2022-09-14T08:32:28.157Z,263
2022-09-14T08:34:29.556Z,253
2022-09-14T08:36:30.932Z,243
2022-09-14T08:40:33.533Z,220
2022-09-14T08:42:35.156Z,226
2022-09-14T08:44:36.834Z,238
2022-09-14T08:46:37.907Z,268
2022-09-14T08:50:40.517Z,222
2022-09-14T08:52:42.330Z,221
2022-09-14T08:54:43.323Z,224
2022-09-14T08:56:44.998Z,257
2022-09-14T09:02:49.662Z,252
2022-09-14T09:04:50.747Z,261
2022-09-14T09:06:51.622Z,256
2022-09-14T09:08:53.309Z,223
2022-09-14T09:12:55.702Z,257
2022-09-14T09:16:57.816Z,247
2022-09-14T09:18:58.916Z,239
2022-09-14T09:23:01.925Z,236
2022-09-14T09:25:03.669Z,235
2022-09-14T09:29:05.908Z,248
2022-09-14T09:33:07.916Z,247
2022-09-14T09:35:08.954Z,268
2022-09-14T09:39:11.748Z,234
2022-09-14T09:41:12.531Z,250
2022-09-14T09:43:18.668Z,259
2022-09-14T09:45:15.130Z,232
2022-09-14T09:47:16.740Z,249
2022-09-14T09:51:23.613Z,249
2022-09-14T09:53:20.662Z,249
2022-09-14T09:55:21.890Z,249
2022-09-14T09:57:22.957Z,249
2022-09-14T09:59:23.982Z,249
2022-09-14T10:01:25.425Z,249
2022-09-14T10:03:26.483Z,249
2022-09-14T10:05:28.228Z,249
2022-09-14T10:07:29.228Z,249
2022-09-14T10:11:31.094Z,159
2022-09-14T10:13:34.389Z,159
2022-09-14T10:15:32.862Z,159
2022-09-14T10:17:34.445Z,159
2022-09-14T10:21:36.990Z,159
2022-09-14T10:23:37.816Z,249
2022-09-14T10:27:39.968Z,249
2022-09-14T10:31:42.572Z,249
2022-09-14T10:33:43.613Z,249
2022-09-14T10:37:46.037Z,271
2022-09-14T10:39:47.862Z,271
2022-09-14T10:41:49.489Z,271
2022-09-14T10:47:53.564Z,271
2022-09-14T10:49:55.241Z,167
2022-09-14T10:51:56.337Z,233
2022-09-14T10:53:57.444Z,233
2022-09-14T10:55:58.798Z,233
2022-09-14T10:57:59.779Z,235
2022-09-14T11:00:00.647Z,265
2022-09-14T11:02:02.272Z,256
2022-09-14T11:04:03.703Z,256
2022-09-14T11:08:06.376Z,245
2022-09-14T11:10:08.079Z,245
2022-09-14T11:12:09.357Z,261
2022-09-14T11:16:13.068Z,155
2022-09-14T11:20:15.304Z,340
2022-09-14T11:22:17.054Z,237
2022-09-14T11:24:18.728Z,233
2022-09-14T11:26:19.929Z,229
2022-09-14T11:30:23.137Z,224
2022-09-14T11:32:24.799Z,208
2022-09-14T11:34:26.386Z,218
2022-09-14T11:36:27.888Z,226
2022-09-14T11:38:30.258Z,205
2022-09-14T11:40:31.679Z,221
2022-09-14T11:42:32.621Z,187
2022-09-14T11:44:33.700Z,218
2022-09-14T11:46:35.344Z,227
2022-09-14T11:48:52.433Z,221
2022-09-14T11:50:37.522Z,193
2022-09-14T11:52:39.841Z,182
2022-09-14T11:54:43.521Z,198
2022-09-14T11:56:42.285Z,216
2022-09-14T11:58:43.675Z,214
2022-09-14T12:02:45.756Z,251
2022-09-14T12:04:46.534Z,240
2022-09-14T12:06:48.138Z,185
2022-09-14T12:08:49.482Z,208
2022-09-14T12:12:51.187Z,203
2022-09-14T12:14:52.477Z,220
2022-09-14T12:16:53.637Z,223
2022-09-14T12:18:55.274Z,249
2022-09-14T12:22:57.589Z,257
2022-09-14T12:24:59.158Z,234
2022-09-14T12:26:59.881Z,234
2022-09-14T12:29:01.048Z,234
2022-09-14T12:31:02.530Z,217
2022-09-14T12:33:03.297Z,223
2022-09-14T12:35:04.461Z,269
2022-09-14T12:41:08.532Z,269
2022-09-14T12:43:10.022Z,251
2022-09-14T12:45:11.701Z,243
2022-09-14T12:47:13.057Z,243
2022-09-14T12:49:57.532Z,238
2022-09-14T12:51:59.040Z,237
2022-09-14T12:54:00.817Z,237
2022-09-14T12:56:01.945Z,237
2022-09-14T12:58:02.847Z,237
2022-09-14T13:00:03.856Z,237
2022-09-14T13:02:05.540Z,237
2022-09-14T13:04:06.731Z,237
2022-09-14T13:06:07.576Z,236
2022-09-14T13:08:08.744Z,238
2022-09-14T13:10:09.870Z,238
2022-09-14T13:12:11.123Z,238
2022-09-14T13:16:13.685Z,278
2022-09-14T13:18:14.651Z,239
2022-09-14T13:20:16.297Z,308
2022-09-14T13:22:17.816Z,304
2022-09-14T13:24:19.453Z,304
2022-09-14T13:26:20.573Z,304
2022-09-14T13:28:21.631Z,304
2022-09-14T13:30:22.627Z,304
2022-09-14T13:32:23.769Z,304
2022-09-14T13:34:25.244Z,304
2022-09-14T13:38:28.382Z,304
2022-09-14T13:40:29.487Z,304
2022-09-14T13:44:31.927Z,304
2022-09-14T13:48:34.379Z,257
2022-09-14T13:50:35.768Z,223
2022-09-14T13:54:37.694Z,223
2022-09-14T13:58:40.681Z,223
2022-09-14T14:00:41.530Z,223
2022-09-14T14:04:43.342Z,223
2022-09-14T14:06:44.234Z,223
2022-09-14T14:08:45.937Z,223
2022-09-14T14:10:47.419Z,223
2022-09-14T14:12:50.748Z,223
2022-09-14T14:14:49.889Z,223
2022-09-14T14:16:51.048Z,223
2022-09-14T14:18:52.279Z,223
2022-09-14T14:20:53.849Z,223
2022-09-14T14:22:55.462Z,223
2022-09-14T14:25:12.654Z,170
2022-09-14T14:26:57.706Z,192
2022-09-14T14:28:58.984Z,233
2022-09-14T14:33:02.018Z,190
2022-09-14T14:37:04.428Z,235
2022-09-14T14:39:06.174Z,280
2022-09-14T14:41:07.875Z,233
2022-09-14T14:43:08.880Z,284
2022-09-14T14:45:10.460Z,214
2022-09-14T14:47:12.292Z,238
2022-09-14T14:49:13.612Z,225
2022-09-14T14:51:14.711Z,166
2022-09-14T14:53:16.164Z,186
2022-09-14T14:55:17.037Z,168
2022-09-14T14:57:18.861Z,187
2022-09-14T14:59:20.096Z,200
2022-09-14T15:01:21.575Z,221
2022-09-14T15:03:22.611Z,250
2022-09-14T15:05:24.201Z,235
2022-09-14T15:09:26.380Z,256
2022-09-14T15:11:28.057Z,246
2022-09-14T15:13:29.409Z,225
2022-09-14T15:15:30.349Z,225
2022-09-14T15:19:32.795Z,225
2022-09-14T15:21:33.881Z,218
2022-09-14T15:25:36.377Z,232
2022-09-14T15:29:39.447Z,197
2022-09-14T15:31:41.129Z,220
2022-09-14T15:35:44.286Z,334
2022-09-14T15:39:49.905Z,238
2022-09-14T15:41:47.494Z,232
2022-09-14T15:45:50.926Z,207
2022-09-14T15:47:52.156Z,239
2022-09-14T15:49:53.110Z,292
2022-09-14T15:51:54.233Z,215
2022-09-14T15:55:57.322Z,262
2022-09-14T15:57:59.107Z,251
2022-09-14T16:02:02.037Z,221
2022-09-14T16:04:03.560Z,213
2022-09-14T16:08:06.052Z,228
2022-09-14T16:12:08.607Z,225
2022-09-14T16:14:10.029Z,215
2022-09-14T16:18:12.664Z,234
2022-09-14T16:20:13.644Z,217
2022-09-14T16:22:14.576Z,227
2022-09-14T16:24:15.569Z,212
2022-09-14T16:26:17.202Z,182
2022-09-14T16:28:18.723Z,174
2022-09-14T16:30:19.752Z,153
2022-09-14T16:32:21.262Z,239
2022-09-14T16:34:22.831Z,218
2022-09-14T16:36:23.939Z,232
2022-09-14T16:38:25.574Z,225
2022-09-14T16:40:26.704Z,184
2022-09-14T16:42:27.846Z,221
2022-09-14T16:44:29.548Z,204
2022-09-14T16:46:30.701Z,216
2022-09-14T16:50:33.902Z,240
2022-09-14T16:54:37.042Z,215
2022-09-14T16:56:38.342Z,246
2022-09-14T17:00:44.043Z,255
2022-09-14T17:02:42.593Z,218
2022-09-14T17:04:44.201Z,218
2022-09-14T17:06:45.024Z,208
2022-09-14T17:08:46.576Z,259
2022-09-14T17:10:47.599Z,259
2022-09-14T17:12:48.449Z,190
2022-09-14T17:14:49.630Z,246
2022-09-14T17:16:50.615Z,214
2022-09-14T17:20:53.497Z,223
2022-09-14T17:22:54.618Z,252
2022-09-14T17:24:56.435Z,217
2022-09-14T17:26:57.383Z,232
2022-09-14T17:28:59.206Z,233
2022-09-14T17:33:02.065Z,211
2022-09-14T17:35:03.219Z,215
2022-09-14T17:37:04.577Z,215
2022-09-14T17:39:10.878Z,215
2022-09-14T17:43:08.376Z,260
2022-09-14T17:45:09.251Z,253
2022-09-14T17:49:12.213Z,215
2022-09-14T17:53:15.365Z,214
2022-09-14T17:55:16.283Z,214
2022-09-14T17:59:18.881Z,202
2022-09-14T18:03:21.974Z,231
2022-09-14T18:05:23.530Z,219
2022-09-14T18:09:25.954Z,229
2022-09-14T18:11:27.703Z,229
2022-09-14T18:13:29.541Z,229
2022-09-14T18:15:31.263Z,253
2022-09-14T18:21:35.875Z,254
2022-09-14T18:23:37.401Z,253
2022-09-14T18:25:39.119Z,253
2022-09-14T18:27:40.345Z,232
2022-09-14T18:31:44.107Z,267
2022-09-14T18:33:45.619Z,268
2022-09-14T18:35:46.736Z,268
2022-09-14T18:37:48.375Z,268
2022-09-14T18:41:51.068Z,268
2022-09-14T18:45:53.958Z,229
2022-09-14T18:47:55.658Z,230
2022-09-14T18:49:57.161Z,233
2022-09-14T18:51:57.971Z,233
2022-09-14T18:53:59.111Z,233
2022-09-14T18:56:00.676Z,233
2022-09-14T18:58:01.880Z,233
2022-09-14T19:00:02.559Z,233
2022-09-14T19:02:04.446Z,210
2022-09-14T19:04:06.018Z,210
2022-09-14T19:06:07.151Z,169
2022-09-14T19:08:08.914Z,268
2022-09-14T19:10:11.691Z,166
2022-09-14T19:14:13.387Z,180
2022-09-14T19:16:15.244Z,187
2022-09-14T19:20:17.542Z,263
2022-09-14T19:24:20.641Z,214
2022-09-14T19:26:22.354Z,208
2022-09-14T19:28:23.316Z,246
2022-09-14T19:30:24.251Z,246
2022-09-14T19:32:25.728Z,246
2022-09-14T19:33:09.462Z,188
2022-09-14T19:35:11.068Z,206
2022-09-14T19:39:14.545Z,206
2022-09-14T19:41:16.449Z,206
2022-09-14T19:43:18.096Z,206
2022-09-14T19:45:19.673Z,206
2022-09-14T19:47:20.959Z,206
2022-09-14T19:51:23.304Z,206
2022-09-14T19:53:24.789Z,360
2022-09-14T19:55:25.711Z,360
2022-09-14T19:57:26.998Z,360
2022-09-14T19:59:28.056Z,360
2022-09-14T20:01:29.866Z,360
2022-09-14T20:03:31.059Z,360
2022-09-14T20:07:32.981Z,360
2022-09-14T20:11:35.931Z,157
2022-09-14T20:13:37.201Z,157
2022-09-14T20:17:49.570Z,157
2022-09-14T20:19:50.556Z,157
2022-09-14T20:21:42.837Z,157
2022-09-14T20:23:58.211Z,157
2022-09-14T20:27:46.818Z,157
2022-09-14T20:29:48.009Z,248
2022-09-14T20:31:48.900Z,248
2022-09-14T20:33:50.563Z,248
2022-09-14T20:39:54.358Z,265
2022-09-14T20:41:55.344Z,265
2022-09-14T20:43:56.283Z,265
2022-09-14T20:45:58.182Z,221
2022-09-14T20:50:00.679Z,221
2022-09-14T20:52:01.843Z,221
2022-09-14T20:54:02.766Z,221
2022-09-14T20:56:04.129Z,221
2022-09-14T21:00:06.900Z,226
2022-09-14T21:02:08.648Z,287
2022-09-14T21:04:10.355Z,287
2022-09-14T21:06:11.313Z,287
2022-09-14T21:08:12.822Z,287
2022-09-14T21:10:14.016Z,287
2022-09-14T21:12:15.265Z,287
2022-09-14T21:14:16.861Z,287
2022-09-14T21:16:18.192Z,287
2022-09-14T21:18:20.775Z,287
2022-09-14T21:20:21.259Z,287
2022-09-14T21:22:22.435Z,287
2022-09-14T21:24:24.244Z,287
2022-09-14T21:26:25.785Z,287
2022-09-14T21:28:27.184Z,287
2022-09-14T21:32:30.509Z,283
2022-09-14T21:34:31.863Z,283
2022-09-14T21:38:34.506Z,283
2022-09-14T21:42:37.223Z,150
2022-09-14T21:44:38.407Z,150
2022-09-14T21:46:39.671Z,150
2022-09-14T21:48:41.415Z,150
2022-09-14T21:52:43.858Z,150
2022-09-14T21:54:45.194Z,151
2022-09-14T21:56:46.282Z,202
2022-09-14T21:58:47.268Z,202
2022-09-14T22:00:56.191Z,202
2022-09-14T22:04:51.673Z,201
2022-09-14T22:06:52.623Z,226
2022-09-14T22:08:54.153Z,160
2022-09-14T22:10:55.449Z,218
2022-09-14T22:14:57.553Z,218
2022-09-14T22:16:59.345Z,218
2022-09-14T22:19:00.379Z,218
2022-09-14T22:21:02.064Z,218
2022-09-14T22:25:04.484Z,259
2022-09-14T22:27:05.481Z,259
2022-09-14T22:31:08.799Z,259
2022-09-14T22:35:11.216Z,186
2022-09-14T22:37:12.740Z,186
2022-09-14T22:41:15.315Z,188
2022-09-14T22:45:17.959Z,187
2022-09-14T22:47:19.360Z,188
2022-09-14T22:51:22.216Z,186
2022-09-14T22:53:23.158Z,186
2022-09-14T22:55:24.062Z,186
2022-09-14T22:57:25.487Z,186
2022-09-14T22:59:26.537Z,183
2022-09-14T23:01:28.137Z,230
2022-09-14T23:03:29.671Z,183
2022-09-14T23:05:30.981Z,183
2022-09-14T23:07:32.000Z,183
2022-09-14T23:09:33.707Z,183
2022-09-14T23:13:36.030Z,183
2022-09-14T23:15:36.955Z,183
2022-09-14T23:19:40.402Z,183
2022-09-14T23:23:42.812Z,183
2022-09-14T23:25:44.529Z,183
2022-09-14T23:29:47.257Z,183
2022-09-14T23:31:48.384Z,183
2022-09-14T23:33:50.445Z,183
2022-09-14T23:35:51.225Z,279
2022-09-14T23:39:54.078Z,308
2022-09-14T23:41:55.454Z,305
2022-09-14T23:43:56.662Z,305
2022-09-14T23:45:58.536Z,305
2022-09-14T23:48:00.431Z,305
2022-09-14T23:50:00.614Z,305
2022-09-14T23:52:02.259Z,305
2022-09-14T23:56:04.853Z,305
2022-09-14T23:58:06.596Z,305
